Hoosier Classic - Trainer

Station: INVENTORY - T Race

Distance: 10 Miles

Release: 13-Apr-2018 08:00

Weather Release:    Arrival:

Wind at Release:     Wind at Arrival:

Temp at Release: °    Temp at Arrival: °

Lofts: 95

Birds: 323

Clocked: 298

Good Luck to Everyone!
Drops Pos Breeder Pigeon Name Color Sex Ent Arrival Speed To Win Eligible
1 Bird Dog Syndicate 2 - CA 0025-AU17-BURG BB H 1 09:27:32.90 201.032 00:00:00 Yes
2 Max - CA 0901-AU17-MAX BB H 1 09:27:44.50 200.589 00:00:12 Yes
3 Hylek Loft - IN 0319-AU17-MICH BSP H 1 09:29:28.00 196.721 00:01:55 Yes
4 Ken Easley & Son Racing - NM 5023-AU17-EASL 4402 x 420 CH H 1 09:34:46.50 185.703 00:07:14 Yes
5 Rpm Syndicate - ON 0127-IF17-BUFF BWF H 1 09:44:25.00 168.555 00:16:52 Yes
6 Van Den Bossche Brothers - ME 0552-AU17-WRC The Wizard BSP H 1 09:44:40.60 168.137 00:17:08 Yes
7 Book & Van Wingerden - AZ 7001-AU17-BOOK Wacko's Boardwalk BB C 1 09:45:57.20 166.111 00:18:24 Yes
8 Jones Family Loft - TX 0742-AU17-KJ BCH H 1 09:46:29.70 165.266 00:18:57 Yes
9 John Fukumoto - HI 0313-AU17-HAWN BB H 1 09:48:53.90 161.619 00:21:21 Yes
10 Dickson Loft - OK 7026-AU17-ARKO BB H 1 09:51:47.60 157.433 00:24:15 Yes
11 H & H Loft - TX 6914-AU17-VK BWF C 1 09:51:49.20 157.396 00:24:16 Yes
12 Andy Skwiat - IN 0009-AU17-ANDY Medusa BB H 1 09:58:53.70 148.030 00:31:21 Yes
12 Master One - CA 0038-AU17-MAST BB H 1 09:58:53.70 148.030 00:31:21 Yes
14 Dos Hermano & Yosellaj Loft - FL 4403-AU17-HRPC BBCH H 1 09:58:54.50 148.013 00:31:22 Yes
15 F T L Loft - IN 13801-AU17-AA BB H 1 09:58:54.60 148.011 00:31:22 Yes
16 Bodzianowski Loft - IL 1600-AU17-WRC BCH C 1 09:58:55.40 147.995 00:31:22 Yes
16 Schillings - IN 0870-AU17-BFS BCH H 1 09:58:55.40 147.995 00:31:22 Yes
18 Van Den Bossche Brothers - ME 0906-AU17-SD Mobster CHPD H 2 09:58:56.20 147.978 00:31:23 Yes
19 A F L - GA 0143-AU17-AFL ,,BLUELLA'' BB H 1 09:58:56.70 147.968 00:31:24 Yes
20 A P C Loft - TX 17035-AU17-APC BB H 1 09:58:57.30 147.955 00:31:24 Yes
20 Bill Kluge - TX 1725-AU17-COLD 30 BCH C 1 09:58:57.30 147.955 00:31:24 Yes
22 Malone Family Loft - IL 0085-AU17-MALO "Jacks Pick" BB C 1 09:58:57.90 147.943 00:31:25 Yes
23 Hillside Loft - ME 17116-AU17-TWOB Ouija BPD H 1 09:58:58.60 147.928 00:31:26 Yes
23 Mc Laughlin Lofts - MA 1023-AU17-MCLO BCH H 1 09:58:58.60 147.928 00:31:26 Yes
25 Erp -Duviel_ubaldo Team - GA 0048-AU17-ERP Ronda BB H 1 09:58:59.20 147.916 00:31:26 Yes
25 Daehn/Miele - FL 0208-AU17-NWFI 217 X 790 BB H 1 09:58:59.20 147.916 00:31:26 Yes
27 Orozco's Loft - MI 0017-AU17-OROZ BB C 1 09:59:00.10 147.897 00:31:27 Yes
28 Orozco's Loft - MI 0910-AU17-MEX CHPD H 2 09:59:01.60 147.866 00:31:29 Yes
28 Twin Loft - FL 4415-AU17-VK BB H 1 09:59:01.60 147.866 00:31:29 Yes
30 Rpm Syndicate - ON 0176-IF17-BUFF BBPD H 2 09:59:02.50 147.847 00:31:30 Yes
31 Hylek Loft - IN 0305-AU17-MICH BB C 2 09:59:03.30 147.831 00:31:30 Yes
32 Upper Canada Loft - ON 2851-CU17-MISS Cigar Cock x Marshmallow BB H 1 09:59:03.90 147.818 00:31:31 Yes
33 Rpm Syndicate - ON 0104-IF17-BUFF BB C 3 09:59:04.60 147.804 00:31:32 Yes
33 Daehn/Miele - FL 0203-AU17-NWFI 973 X 257 BBWF H 2 09:59:04.60 147.804 00:31:32 Yes
35 Chino & Vazquez - FL 30399-AU17-ARPU BB C 1 09:59:04.70 147.802 00:31:32 Yes
36 Andy Skwiat - IN 0029-AU17-ANDY BSP H 2 09:59:05.80 147.779 00:31:33 Yes
37 Sandstrom Brothers Loft - MN 0723-AU17-SBL BCPD H 1 09:59:06.60 147.763 00:31:34 Yes
38 For Sale - IN 55755-AU17-ARPU Eros BCH C 1 09:59:06.70 147.761 00:31:34 Yes
39 H & H Loft - TX 6912-AU17-VK BCH H 2 09:59:07.50 147.744 00:31:35 Yes
39 Furlano & Rotiroti - ON 3374-CU17-LAKE BB C 1 09:59:07.50 147.744 00:31:35 Yes
41 F T L Loft - IN 0029-AU17-HUTC BB H 2 09:59:09.00 147.713 00:31:36 Yes
42 Skwiat/Braddy Syndicate - IN 0032-AU17-XLOF 100K Cock BPD C 1 09:59:09.50 147.703 00:31:37 Yes
43 Book & Van Wingerden - AZ 7013-AU17-BOOK Paloma Dorado BB C 2 09:59:12.40 147.643 00:31:39 Yes
44 Hillside Loft - ME 4275-AU17-VK LuLu BB H 2 09:59:13.90 147.612 00:31:41 Yes
45 Daehn/Miele - FL 0019-AU17-NWFI 33 X 19 BB H 3 09:59:14.00 147.610 00:31:41 Yes
46 Wolfs Den - IL 0003-AU17-WOLF BB C 1 09:59:16.40 147.560 00:31:44 Yes
47 Daehn/Miele - FL 0201-AU17-NWFI Rw X 419 DCH H 4 09:59:17.00 147.548 00:31:44 Yes
48 F T L Loft - IN 0028-AU17-HUTC CHSP H 3 10:03:52.00 142.088 00:36:19 Yes
49 Master One - CA 70531-AU17-MAN BCH H 2 10:03:52.80 142.073 00:36:20 Yes
50 For Sale - IN 17109-AU17-TWOB See you later BB H 2 10:03:53.50 142.060 00:36:21 Yes
50 Rpm Syndicate - ON 0004-AU17-BFS BB C 4 10:03:53.50 142.060 00:36:21 Yes
52 Aubrina & Pappy - IN 0902-AU17-VK BSP H 1 10:03:53.60 142.058 00:36:21 Yes
52 For Sale - IN 4452-AU17-VK BB H 3 10:03:53.60 142.058 00:36:21 Yes
54 Elton Dinga - TX 12032-AU17-AA Brother Victor x D Bailey BB H 1 10:03:54.20 142.046 00:36:21 Yes
55 Aztec Loft - DE 0016-AU17-FCI BB C 1 10:03:55.30 142.025 00:36:22 Yes
56 H & H Loft - TX 6918-AU17-VK BB C 3 10:03:55.80 142.016 00:36:23 Yes
57 America\'s Dream Loft - IL 0068-AU17-ADL BB C 1 10:03:56.50 142.002 00:36:24 Yes
58 Bill Kluge - TX 1734-AU17-COLD 10 BB C 2 10:04:22.70 141.504 00:36:50 Yes
59 Max - CA 0912-AU17-MAX BB H 2 10:04:45.10 141.080 00:37:12 Yes
60 Andy Skwiat - IN 0022-AU17-ANDY BB H 3 10:05:54.50 139.784 00:38:22 Yes
61 Malloy Flying Loft - TX 0129-AU17-MALL BWF H 1 10:11:11.10 134.162 00:43:38 Yes
62 America\'s Dream Loft - IL 0065-AU17-ADL BWF C 2 10:11:14.20 134.109 00:43:41 Yes
63 Cicio\'s Loft - IL 0183-AU17-CICI BPD H 1 10:11:14.70 134.100 00:43:42 Yes
64 For Sale - IN 0002-AU17-GARY BBPD H 4 10:11:15.30 134.090 00:43:42 Yes
65 Yandy Family Loft - FL 1250-AU17-VK BCH H 1 10:11:15.90 134.080 00:43:43 Yes
66 Schillings - IN 0868-AU17-BFS Big John BB C 2 10:11:16.00 134.078 00:43:43 Yes
66 Zapopan-Palomar-Ayon Loft - TX 0435-AU17-PALO BPD H 1 10:11:16.00 134.078 00:43:43 Yes
68 For Sale - IN 17117-AU17-TWOB BSWF C 5 10:11:16.60 134.068 00:43:44 Yes
69 Aubrina & Pappy - IN 0906-AU17-VK BSP H 2 10:11:16.70 134.066 00:43:44 Yes
69 Ganus Family Loft - IN 0721-AU17-GFL BB H 1 10:11:16.70 134.066 00:43:44 Yes
71 Hylek Loft - IN 0301-AU17-MICH BB C 3 10:11:16.80 134.065 00:43:44 Yes
71 3s Lofts - CA 0227-AU17-VIP Who's Your Daddy SILV H 1 10:11:16.80 134.065 00:43:44 Yes
73 Stephen Brothers - CA 0728-AU17-COM BB H 1 10:11:17.30 134.056 00:43:44 Yes
73 Book & Van Wingerden - AZ 7000-AU17-BOOK Wacko's Park Place BB H 3 10:11:17.30 134.056 00:43:44 Yes
75 Hillside Loft - ME 17049-AU17-AGD Oumuamua BB C 3 10:11:18.00 134.044 00:43:45 Yes
75 Hwy 51 Loft - OK 0767-AU17-HWY BCH H 1 10:11:18.00 134.044 00:43:45 Yes
77 Book & Van Wingerden - AZ 7005-AU17-BOOK BBPD H 4 10:11:18.10 134.042 00:43:45 Yes
77 Ganus Family Loft - IN 0717-AU17-GFL BB H 2 10:11:18.10 134.042 00:43:45 Yes
79 Twin Loft - FL 0589-AU17-HRPC BCH H 2 10:11:18.90 134.029 00:43:46 Yes
79 F T L Loft - IN 0037-AU17-HUTC BB H 4 10:11:18.90 134.029 00:43:46 Yes
81 Ganus Family Loft - IN 0702-AU17-GFL CHWF H 3 10:11:19.00 134.027 00:43:46 Yes
82 Debbie Ganus - IN 0323-AU17-GFL BB H 1 10:11:20.10 134.008 00:43:47 Yes
82 America\'s Dream Loft - IL 0032-AU17-ADL RCH C 3 10:11:20.10 134.008 00:43:47 Yes
84 Aubrina & Pappy - IN 0915-AU17-VK BCH H 3 10:11:20.70 133.998 00:43:48 Yes
85 For Sale - IN 1004-AU17-FOYS ☯🐌🐌🐌🐌☯️ CHPD H 6 10:11:20.80 133.997 00:43:48 Yes
86 Alca Girls - IL 0875-AU17-RRV Midnight Rambler BCH C 1 10:11:21.80 133.980 00:43:49 Yes
87 Bird Dog Syndicate 2 - CA 0009-AU17-BURG CHWF H 2 10:11:22.30 133.971 00:43:49 Yes
88 F T L Loft - IN 13873-AU17-AA BCH H 5 10:11:23.70 133.947 00:43:51 Yes
89 Floden Lofts - KY 5054-AU17-VK BB H 1 10:11:24.30 133.937 00:43:51 Yes
89 F T L Loft - IN 0033-AU17-HUTC BB C 6 10:11:24.30 133.937 00:43:51 Yes
91 A P C Loft - TX 17235-AU17-APC BB H 2 10:11:25.50 133.917 00:43:53 Yes
92 Andy Skwiat - IN 0006-AU17-ANDY BB H 4 10:11:26.10 133.906 00:43:53 Yes
93 Twin Loft - FL 0596-AU17-BLES BCH H 3 10:11:29.20 133.854 00:43:56 Yes
94 Tegan Bogoslawski - IN 0090-AU17-ANDY BB H 1 10:11:32.40 133.800 00:43:59 Yes
95 Elton Dinga - TX 12050-AU17-AA Klaas 771 x 16837 BB H 2 10:11:39.90 133.673 00:44:07 Yes
96 Debbie Ganus - IN 0744-AU17-GFL BB H 2 10:11:40.40 133.664 00:44:08 Yes
97 Book & Van Wingerden - AZ 7039-AU17-BOOK BB H 5 10:11:40.50 133.662 00:44:08 Yes
98 Patrick Kwan - CA 0713-AU17-KWAN BB H 1 10:16:19.90 129.097 00:48:47 Yes
99 Andy Skwiat - IN 0014-AU17-ANDY BSP C 5 10:16:20.40 129.089 00:48:48 Yes
100 H & H Loft - TX 6903-AU17-VK BB C 4 10:16:20.90 129.081 00:48:48 Yes

There are 325 bird records

Note: These Race Results are unofficial and subject to change until verified by the Race Committee and declared final.